Time;durP1;ratioP1;P1;durP2;ratioP2;P2;SDS_P1;SDS_P2;PMS_P1;PMS_P2;Temp;Humidity;BMP_temperature;BMP_pressure;BME280_temperature;BME280_humidity;BME280_pressure;Samples;Min_cycle;Max_cycle;Signal;HPM_P1;HPM_P2
2021/01/22 00:00:14;;;;;;;2.50;1.00;;;;;;;10.52;86.72;98067.38;630217;224;32593;-80
2021/01/22 00:02:42;;;;;;;1.87;1.00;;;;;;;10.52;86.86;98068.67;638601;221;24794;-80
2021/01/22 00:05:11;;;;;;;2.20;0.80;;;;;;;10.48;86.67;98060.48;635867;223;32731;-81
2021/01/22 00:07:39;;;;;;;1.40;0.90;;;;;;;10.53;86.75;98041.18;634056;224;43646;-79
2021/01/22 00:10:08;;;;;;;2.87;0.90;;;;;;;10.45;86.19;98032.30;639170;224;24819;-80
2021/01/22 00:12:36;;;;;;;1.13;0.90;;;;;;;10.42;85.87;98026.70;637383;224;24876;-81
2021/01/22 00:15:05;;;;;;;2.10;0.80;;;;;;;10.36;85.71;98025.17;640592;224;23867;-80
2021/01/22 00:17:33;;;;;;;0.80;0.80;;;;;;;10.33;85.66;98020.88;639765;224;24782;-81
2021/01/22 00:20:01;;;;;;;1.50;1.20;;;;;;;10.35;86.57;98027.97;640171;224;24850;-81
2021/01/22 00:22:29;;;;;;;1.43;0.70;;;;;;;10.27;86.79;98032.84;638523;225;24819;-81
2021/01/22 00:24:57;;;;;;;0.80;0.80;;;;;;;10.36;86.61;98024.38;631409;225;24839;-81
2021/01/22 00:27:25;;;;;;;1.00;0.90;;;;;;;10.33;86.11;98037.27;639889;224;25030;-80
2021/01/22 00:29:53;;;;;;;0.70;0.70;;;;;;;10.37;86.12;98042.86;633352;224;43210;-81
2021/01/22 00:32:21;;;;;;;1.57;0.80;;;;;;;10.43;86.22;98050.38;638186;221;23752;-80
2021/01/22 00:34:49;;;;;;;0.63;0.63;;;;;;;10.38;86.19;98034.86;640418;223;23917;-80
2021/01/22 00:37:17;;;;;;;0.80;0.60;;;;;;;10.30;87.14;98035.56;639341;224;23833;-81
2021/01/22 00:39:45;;;;;;;0.70;0.50;;;;;;;10.44;85.93;98015.60;635037;223;32602;-81
2021/01/22 00:42:13;;;;;;;0.90;0.50;;;;;;;10.42;86.18;98021.00;634021;224;32813;-81
2021/01/22 00:44:41;;;;;;;0.67;0.50;;;;;;;10.53;85.45;98021.69;633396;224;32629;-79
2021/01/22 00:47:09;;;;;;;3.00;0.60;;;;;;;10.36;86.32;98016.58;638738;225;24804;-80
2021/01/22 00:49:37;;;;;;;1.00;0.60;;;;;;;10.40;85.99;98019.87;625939;226;23922;-80
2021/01/22 00:52:05;;;;;;;2.60;1.03;;;;;;;10.29;87.06;98017.08;624601;229;24878;-81
2021/01/22 00:54:33;;;;;;;0.70;0.50;;;;;;;10.14;88.57;98019.82;639837;224;23863;-81
2021/01/22 00:57:01;;;;;;;0.60;0.60;;;;;;;10.11;88.67;98033.17;626166;229;24779;-80
2021/01/22 00:59:29;;;;;;;3.07;0.67;;;;;;;10.04;90.33;98029.28;637885;225;23755;-80
2021/01/22 01:01:57;;;;;;;0.60;0.60;;;;;;;10.04;90.16;98032.38;627796;225;24097;-81
2021/01/22 01:04:25;;;;;;;1.00;0.70;;;;;;;10.02;90.94;98030.47;637957;225;23745;-81
2021/01/22 01:06:53;;;;;;;0.60;0.50;;;;;;;9.88;92.44;98026.23;637045;225;24756;-80
2021/01/22 01:09:21;;;;;;;0.70;0.70;;;;;;;9.87;92.47;98030.62;639458;223;24754;-81
2021/01/22 01:11:49;;;;;;;0.53;0.53;;;;;;;9.84;93.38;98016.71;641437;220;24779;-83
2021/01/22 01:14:17;;;;;;;0.80;0.60;;;;;;;9.87;93.70;98026.73;640651;224;24800;-82
2021/01/22 01:16:45;;;;;;;0.70;0.63;;;;;;;9.89;93.57;98016.95;634199;225;24826;-81
2021/01/22 01:19:13;;;;;;;1.13;0.70;;;;;;;9.90;93.58;98016.45;633580;225;23819;-80
2021/01/22 01:21:41;;;;;;;1.37;0.80;;;;;;;9.90;92.98;98025.04;636249;222;24802;-80
2021/01/22 01:24:09;;;;;;;0.80;0.60;;;;;;;9.97;93.52;98016.75;620212;226;32930;-81
2021/01/22 01:26:37;;;;;;;0.83;0.80;;;;;;;10.03;93.44;98009.50;641172;223;24791;-81
2021/01/22 01:29:05;;;;;;;1.00;0.90;;;;;;;9.98;92.69;98012.36;635311;224;26965;-81
2021/01/22 01:31:34;;;;;;;0.80;0.80;;;;;;;10.00;92.62;98007.80;638149;220;24764;-81
2021/01/22 01:34:01;;;;;;;0.77;0.77;;;;;;;9.98;92.29;97997.58;637628;225;24787;-81
2021/01/22 01:36:29;;;;;;;0.93;0.93;;;;;;;10.09;92.61;98000.11;624358;229;24849;-81
2021/01/22 01:38:57;;;;;;;1.37;1.00;;;;;;;10.17;91.66;97996.55;641582;223;24847;-80
2021/01/22 01:41:25;;;;;;;1.00;0.90;;;;;;;10.16;91.69;98002.73;640172;223;24875;-81
2021/01/22 01:43:53;;;;;;;0.60;0.60;;;;;;;10.20;91.02;97998.74;633813;225;23844;-81
2021/01/22 01:46:21;;;;;;;0.83;0.83;;;;;;;10.29;90.10;97997.59;636511;225;24748;-81
2021/01/22 01:48:49;;;;;;;0.70;0.70;;;;;;;10.34;90.60;98008.98;626629;228;24818;-81
2021/01/22 01:51:17;;;;;;;2.77;1.03;;;;;;;10.38;89.97;98010.68;627002;224;23877;-81
2021/01/22 01:53:45;;;;;;;3.33;1.03;;;;;;;10.38;90.03;98014.58;629253;228;24857;-80
2021/01/22 01:56:13;;;;;;;1.53;0.90;;;;;;;10.44;88.76;98015.10;637528;225;24058;-81
2021/01/22 01:58:41;;;;;;;1.30;0.90;;;;;;;10.39;89.30;98017.48;626401;229;28033;-80
2021/01/22 02:01:09;;;;;;;0.70;0.70;;;;;;;10.41;89.13;98015.47;626396;229;24822;-81
2021/01/22 02:03:37;;;;;;;0.80;0.80;;;;;;;10.44;88.60;98000.02;638595;224;26000;-80
2021/01/22 02:06:05;;;;;;;5.63;0.90;;;;;;;10.48;87.45;98010.30;633817;224;24793;-81
2021/01/22 02:08:33;;;;;;;1.00;0.80;;;;;;;10.52;88.25;98003.20;639249;224;24781;-81
2021/01/22 02:11:01;;;;;;;8.93;1.00;;;;;;;10.54;87.29;98008.98;640594;224;24814;-81
2021/01/22 02:13:29;;;;;;;6.30;0.93;;;;;;;10.61;87.18;98015.51;626110;225;24848;-81
2021/01/22 02:15:59;;;;;;;1.77;0.90;;;;;;;10.59;87.35;98005.81;628008;228;24845;-81
2021/01/22 02:18:27;;;;;;;1.70;0.93;;;;;;;10.61;86.73;98011.61;628587;228;24804;-81
2021/01/22 02:20:59;;;;;;;1.53;0.80;;;;;;;10.56;86.06;98002.32;640699;223;24815;-82
2021/01/22 02:23:27;;;;;;;1.20;0.87;;;;;;;10.57;86.08;98006.02;641943;219;26973;-82
2021/01/22 02:25:56;;;;;;;1.67;1.00;;;;;;;10.59;86.11;97985.82;622342;229;24925;-81
2021/01/22 02:28:24;;;;;;;3.27;0.87;;;;;;;10.61;84.92;97991.61;640534;224;24771;-80
2021/01/22 02:30:52;;;;;;;4.10;1.27;;;;;;;10.64;84.96;97979.50;626106;229;24786;-81
2021/01/22 02:33:20;;;;;;;1.90;1.00;;;;;;;10.74;84.70;97992.11;640974;219;24858;-81
2021/01/22 02:35:50;;;;;;;2.80;1.07;;;;;;;10.78;84.01;97980.80;640120;223;24773;-81
2021/01/22 02:38:18;;;;;;;1.33;0.93;;;;;;;10.77;83.50;97983.91;640902;224;24819;-81
2021/01/22 02:40:46;;;;;;;3.00;1.20;;;;;;;10.79;83.36;97984.50;626970;227;24832;-81
2021/01/22 02:43:14;;;;;;;3.00;1.30;;;;;;;10.84;82.75;97978.69;625637;226;25011;-81
2021/01/22 02:45:42;;;;;;;3.37;1.17;;;;;;;10.80;82.98;97981.39;623969;229;24410;-81
2021/01/22 02:48:11;;;;;;;4.83;1.20;;;;;;;10.83;82.03;97971.89;620192;229;33064;-81
2021/01/22 02:50:39;;;;;;;3.50;1.40;;;;;;;11.05;81.75;97982.36;636188;224;32672;-81
2021/01/22 02:53:07;;;;;;;1.50;1.00;;;;;;;11.16;80.89;97979.15;634423;220;33092;-80
2021/01/22 02:55:35;;;;;;;1.53;0.80;;;;;;;10.87;81.51;97983.00;640498;224;23693;-81
2021/01/22 02:58:04;;;;;;;3.03;0.80;;;;;;;11.02;82.23;97981.98;638801;223;25988;-81
2021/01/22 03:00:32;;;;;;;2.50;1.00;;;;;;;10.86;81.46;97975.41;638905;224;26966;-81
2021/01/22 03:03:03;;;;;;;2.00;0.80;;;;;;;10.91;81.76;97982.89;641131;223;24844;-80
2021/01/22 03:05:31;;;;;;;4.83;1.13;;;;;;;10.95;81.16;97971.57;623718;230;24832;-81
2021/01/22 03:07:59;;;;;;;3.63;1.10;;;;;;;10.89;80.58;97964.59;625134;229;24844;-81
2021/01/22 03:10:27;;;;;;;3.77;1.10;;;;;;;11.03;80.05;97969.27;622920;228;32837;-81
2021/01/22 03:12:55;;;;;;;5.70;1.10;;;;;;;10.94;81.09;97973.87;629400;224;25179;-80
2021/01/22 03:15:23;;;;;;;4.10;1.35;;;;;;;11.08;79.96;97979.35;622567;228;43661;-81
2021/01/22 03:17:51;;;;;;;5.93;1.30;;;;;;;11.06;80.39;97978.77;626261;229;24797;-81
2021/01/22 03:20:19;;;;;;;5.03;1.47;;;;;;;11.02;80.12;97968.98;627786;229;25040;-80
2021/01/22 03:22:47;;;;;;;2.77;1.10;;;;;;;11.09;79.80;97964.04;633235;223;38694;-81
2021/01/22 03:25:15;;;;;;;4.47;1.20;;;;;;;11.04;79.42;97970.87;632812;224;32819;-81
2021/01/22 03:27:43;;;;;;;3.47;1.20;;;;;;;11.04;78.96;97972.17;639542;224;25827;-81
2021/01/22 03:30:12;;;;;;;1.77;0.90;;;;;;;11.03;79.92;97973.17;640952;222;24783;-81
2021/01/22 03:32:40;;;;;;;3.67;0.90;;;;;;;10.99;80.42;97983.19;640863;220;24824;-80
2021/01/22 03:35:09;;;;;;;4.60;1.83;;;;;;;10.80;81.83;97980.09;639493;224;24884;-81
2021/01/22 03:37:37;;;;;;;2.50;1.10;;;;;;;10.79;81.89;97983.70;637941;224;23855;-81
2021/01/22 03:40:06;;;;;;;1.80;0.97;;;;;;;10.74;83.08;97974.41;638289;224;24786;-82
2021/01/22 03:42:34;;;;;;;4.20;1.10;;;;;;;10.87;82.13;97966.09;619182;226;32994;-80
2021/01/22 03:45:02;;;;;;;9.93;1.37;;;;;;;10.74;81.30;97965.31;627376;228;23695;-81
2021/01/22 03:47:30;;;;;;;3.70;1.10;;;;;;;10.84;81.95;97954.81;643095;223;24766;-81
2021/01/22 03:49:58;;;;;;;6.60;1.50;;;;;;;10.76;81.81;97957.61;639768;224;24843;-80
2021/01/22 03:52:26;;;;;;;3.90;1.37;;;;;;;10.76;81.15;97964.61;640515;220;25457;-81
2021/01/22 03:54:54;;;;;;;2.37;1.17;;;;;;;10.75;80.29;97952.61;638872;224;24779;-82
2021/01/22 03:57:22;;;;;;;5.40;1.50;;;;;;;10.83;80.55;97957.08;638402;225;24787;-81
2021/01/22 03:59:50;;;;;;;4.30;0.90;;;;;;;10.82;79.95;97957.29;632347;225;32850;-81
2021/01/22 04:02:19;;;;;;;1.60;0.90;;;;;;;10.85;79.99;97949.11;633276;221;24928;-81
2021/01/22 04:04:46;;;;;;;5.13;1.10;;;;;;;10.85;79.76;97956.91;640192;224;24829;-81
2021/01/22 04:07:14;;;;;;;3.00;1.10;;;;;;;10.79;79.97;97953.30;624804;229;23812;-81
2021/01/22 04:09:42;;;;;;;1.87;0.93;;;;;;;10.87;80.66;97956.20;627319;229;24808;-81
2021/01/22 04:12:10;;;;;;;2.77;1.10;;;;;;;10.82;80.80;97956.78;626405;225;24779;-82
2021/01/22 04:14:38;;;;;;;6.23;1.17;;;;;;;10.78;80.72;97960.00;625318;229;23838;-81
2021/01/22 04:17:06;;;;;;;5.90;1.10;;;;;;;10.73;80.87;97955.42;625813;229;24827;-80
2021/01/22 04:19:34;;;;;;;4.03;1.00;;;;;;;10.94;80.74;97956.97;619194;228;32693;-80
2021/01/22 04:22:02;;;;;;;4.12;1.15;;;;;;;10.81;80.77;97949.19;620397;226;32683;-81
2021/01/22 04:24:30;;;;;;;4.00;1.13;;;;;;;10.75;81.50;97945.61;624980;229;24802;-81
2021/01/22 04:26:58;;;;;;;3.43;1.23;;;;;;;10.67;82.00;97950.50;625088;229;24824;-81
2021/01/22 04:29:26;;;;;;;3.00;0.90;;;;;;;10.67;81.22;97948.41;624616;229;24950;-81
2021/01/22 04:31:54;;;;;;;5.23;1.13;;;;;;;10.72;81.37;97946.02;625911;225;24814;-81
2021/01/22 04:34:22;;;;;;;3.70;1.10;;;;;;;10.77;80.77;97944.11;620873;229;33130;-80
2021/01/22 04:36:50;;;;;;;2.20;0.87;;;;;;;10.81;81.35;97949.19;625266;229;26944;-80
2021/01/22 04:39:18;;;;;;;7.27;1.10;;;;;;;10.68;81.93;97949.50;625615;229;25051;-81
2021/01/22 04:41:46;;;;;;;2.03;1.00;;;;;;;10.59;81.39;97945.53;625255;225;24790;-81
2021/01/22 04:44:14;;;;;;;2.27;1.00;;;;;;;10.67;81.93;97939.30;628520;227;25089;-81
2021/01/22 04:46:42;;;;;;;2.00;1.00;;;;;;;10.65;80.68;97937.41;626464;228;24833;-81
2021/01/22 04:49:10;;;;;;;2.93;0.90;;;;;;;10.65;81.93;97935.61;626814;229;24791;-81
2021/01/22 04:51:38;;;;;;;2.00;0.90;;;;;;;10.84;80.87;97926.67;621566;226;43425;-80
2021/01/22 04:54:06;;;;;;;2.30;1.10;;;;;;;10.67;80.84;97927.61;633727;224;24771;-81
2021/01/22 04:56:36;;;;;;;3.27;1.03;;;;;;;10.70;80.36;97931.93;644242;213;81913;-74
2021/01/22 04:59:06;;;;;;;5.23;1.03;;;;;;;10.68;81.36;97922.20;645574;220;24770;-74
2021/01/22 05:01:35;;;;;;;2.87;0.97;;;;;;;10.72;81.95;97936.92;646699;221;24746;-74
2021/01/22 05:06:44;;;;;;;2.77;0.90;;;;;;;10.68;82.51;97931.80;652396;213;24565;-74
2021/01/22 05:09:13;;;;;;;3.17;0.90;;;;;;;10.70;82.28;97926.73;640360;221;24832;-75
2021/01/22 05:11:43;;;;;;;2.53;0.80;;;;;;;10.72;82.05;97914.02;651807;216;32513;-74
2021/01/22 05:14:13;;;;;;;2.40;1.00;;;;;;;10.72;81.90;97917.42;639175;221;24769;-74
2021/01/22 05:16:42;;;;;;;2.63;1.07;;;;;;;10.67;82.22;97917.21;654953;216;24764;-74
2021/01/22 05:19:21;;;;;;;4.93;0.80;;;;;;;10.61;82.66;97914.93;640734;220;24795;-74
2021/01/22 05:21:50;;;;;;;2.43;0.90;;;;;;;10.61;82.25;97908.44;644113;220;24879;-74
2021/01/22 05:24:23;;;;;;;3.17;1.00;;;;;;;10.80;81.16;97909.89;636428;221;32969;-74
2021/01/22 05:27:01;;;;;;;1.90;1.00;;;;;;;10.74;81.11;97912.02;644186;221;23649;-74
2021/01/22 05:29:30;;;;;;;2.53;1.13;;;;;;;10.74;82.05;97909.42;639939;222;23872;-74
2021/01/22 05:31:59;;;;;;;5.57;0.80;;;;;;;10.69;82.06;97917.30;658142;217;26925;-74
2021/01/22 05:34:46;;;;;;;3.90;0.97;;;;;;;10.59;83.12;97907.84;650890;216;25064;-74
2021/01/22 05:37:17;;;;;;;3.80;0.90;;;;;;;10.62;83.65;97923.03;650907;220;24790;-74
2021/01/22 05:39:46;;;;;;;1.23;0.93;;;;;;;10.50;84.40;97911.64;638775;221;24796;-74
2021/01/22 05:42:15;;;;;;;1.97;0.97;;;;;;;10.57;85.06;97918.14;655160;218;24719;-74
2021/01/22 05:44:57;;;;;;;3.00;1.20;;;;;;;10.58;85.32;97928.34;652402;218;24730;-74
2021/01/22 05:50:19;;;;;;;2.80;0.90;;;;;;;10.43;83.35;97919.16;656071;217;25394;-75
2021/01/22 05:52:49;;;;;;;1.77;0.80;;;;;;;10.56;83.76;97913.95;637056;220;24886;-74
2021/01/22 05:55:23;;;;;;;4.10;1.27;;;;;;;10.60;83.64;97915.94;631033;226;24812;-74
2021/01/22 05:57:51;;;;;;;1.90;1.13;;;;;;;10.66;83.46;97912.52;635905;225;24873;-75
2021/01/22 06:00:22;;;;;;;1.90;1.40;;;;;;;10.59;83.29;97922.14;630226;225;24869;-74
2021/01/22 06:02:53;;;;;;;4.40;1.20;;;;;;;10.57;84.43;97922.05;642113;221;24816;-73
2021/01/22 06:05:22;;;;;;;2.97;1.17;;;;;;;10.55;85.36;97928.72;636358;224;26968;-74
2021/01/22 06:08:00;;;;;;;1.43;1.00;;;;;;;10.45;84.83;97927.05;647076;221;24126;-74
2021/01/22 06:10:29;;;;;;;3.07;0.80;;;;;;;10.50;85.28;97929.83;632724;222;32657;-74
2021/01/22 06:12:58;;;;;;;2.80;1.17;;;;;;;10.58;85.70;97930.94;627490;225;24825;-74
2021/01/22 06:15:27;;;;;;;2.80;0.90;;;;;;;10.40;86.77;97923.73;647836;221;24802;-74
2021/01/22 06:17:55;;;;;;;4.00;1.10;;;;;;;10.33;86.59;97913.05;640850;221;24768;-74
2021/01/22 06:20:23;;;;;;;2.07;0.77;;;;;;;10.39;87.16;97922.63;631153;225;24839;-75
2021/01/22 06:23:07;;;;;;;3.23;0.90;;;;;;;10.39;86.25;97920.03;642396;221;24773;-74
2021/01/22 06:25:35;;;;;;;3.23;1.00;;;;;;;10.40;86.12;97916.44;637374;225;24775;-75
2021/01/22 06:28:03;;;;;;;2.40;1.20;;;;;;;10.51;85.26;97915.84;644217;220;24767;-75
2021/01/22 06:30:32;;;;;;;3.23;1.00;;;;;;;10.49;85.87;97911.34;644525;221;24786;-74
2021/01/22 06:33:00;;;;;;;2.20;0.87;;;;;;;10.50;85.45;97914.23;637974;225;24864;-74
2021/01/22 06:35:28;;;;;;;2.43;0.90;;;;;;;10.49;85.84;97904.84;639452;221;23811;-74
2021/01/22 06:37:57;;;;;;;1.43;0.73;;;;;;;10.50;84.88;97906.44;642448;221;23799;-74
2021/01/22 06:40:25;;;;;;;2.10;0.90;;;;;;;10.52;85.42;97906.23;640834;221;24763;-74
2021/01/22 06:42:53;;;;;;;1.33;0.90;;;;;;;10.62;84.65;97910.53;640698;221;23974;-74
2021/01/22 06:45:21;;;;;;;6.50;0.90;;;;;;;10.61;84.21;97907.13;631370;225;24795;-74
2021/01/22 06:47:59;;;;;;;1.37;0.80;;;;;;;10.67;83.74;97911.52;638960;221;24816;-74
2021/01/22 06:50:27;;;;;;;2.30;0.90;;;;;;;10.63;84.64;97914.73;636489;225;29298;-75
2021/01/22 06:53:10;;;;;;;2.73;0.80;;;;;;;10.59;85.43;97905.74;642975;220;24791;-74
2021/01/22 06:56:03;;;;;;;1.80;0.80;;;;;;;10.46;86.43;97916.15;641732;221;24803;-74
2021/01/22 06:58:31;;;;;;;3.50;1.00;;;;;;;10.55;87.37;97927.92;634780;225;24825;-74
2021/01/22 07:00:58;;;;;;;2.83;0.73;;;;;;;10.34;87.07;97914.15;648166;219;24836;-74
2021/01/22 07:03:37;;;;;;;2.10;0.90;;;;;;;10.38;89.10;97922.34;634726;225;24806;-74
2021/01/22 07:06:05;;;;;;;2.70;0.90;;;;;;;10.37;89.20;97936.33;639285;222;24804;-74
2021/01/22 07:08:44;;;;;;;3.37;0.80;;;;;;;10.37;90.36;97937.13;634208;226;23841;-74
2021/01/22 07:11:12;;;;;;;1.83;1.10;;;;;;;10.21;89.70;97939.30;646023;221;24818;-74
2021/01/22 07:13:42;;;;;;;3.93;1.40;;;;;;;10.21;89.50;97938.83;638024;224;24812;-74
2021/01/22 07:16:09;;;;;;;3.47;1.50;;;;;;;10.24;90.11;97937.13;625530;225;24870;-74
2021/01/22 07:18:44;;;;;;;6.80;1.10;;;;;;;10.23;89.51;97943.31;638779;222;24814;-74
2021/01/22 07:21:33;;;;;;;6.20;1.20;;;;;;;10.20;88.29;97928.61;637147;225;23863;-74
2021/01/22 07:24:01;;;;;;;2.90;1.03;;;;;;;10.22;88.38;97918.84;640075;221;24830;-74
2021/01/22 07:26:31;;;;;;;5.07;0.97;;;;;;;10.26;88.30;97918.73;628688;226;24842;-74
2021/01/22 07:28:59;;;;;;;2.03;0.90;;;;;;;10.36;86.97;97917.84;639870;221;23814;-74
2021/01/22 07:31:50;;;;;;;5.27;1.23;;;;;;;10.35;87.27;97916.25;644259;221;23808;-74
2021/01/22 07:34:39;;;;;;;4.83;1.12;;;;;;;10.64;85.17;97895.53;630857;225;32786;-74
2021/01/22 07:37:07;;;;;;;4.13;1.20;;;;;;;10.61;84.11;97900.64;637088;225;24093;-74
2021/01/22 07:39:35;;;;;;;4.50;0.90;;;;;;;10.73;82.67;97900.82;625428;225;33955;-74
2021/01/22 07:42:06;;;;;;;6.00;0.90;;;;;;;10.64;82.65;97898.92;640043;221;24804;-74
2021/01/22 07:44:34;;;;;;;2.37;1.20;;;;;;;10.74;82.44;97895.92;626941;226;24831;-74
2021/01/22 07:47:02;;;;;;;2.07;0.90;;;;;;;10.73;82.19;97890.92;629467;225;24853;-74
2021/01/22 07:49:30;;;;;;;3.60;1.20;;;;;;;10.75;81.60;97891.52;628583;226;24879;-74
2021/01/22 07:51:59;;;;;;;3.20;0.97;;;;;;;10.83;81.53;97901.17;644947;221;24840;-73
2021/01/22 07:54:27;;;;;;;4.03;1.10;;;;;;;10.75;80.75;97896.21;641132;221;25000;-73
2021/01/22 07:56:55;;;;;;;3.60;1.27;;;;;;;10.89;80.02;97894.38;622342;226;33128;-74
2021/01/22 07:59:23;;;;;;;5.97;1.43;;;;;;;10.95;80.90;97896.16;633406;225;23865;-74
2021/01/22 08:01:51;;;;;;;2.00;0.90;;;;;;;10.84;79.81;97895.47;637009;221;24809;-74
2021/01/22 08:04:27;;;;;;;2.60;1.10;;;;;;;10.82;80.21;97897.48;635853;221;27040;-74
2021/01/22 08:06:55;;;;;;;3.07;1.23;;;;;;;10.88;78.81;97903.19;628187;225;24836;-73
2021/01/22 08:09:23;;;;;;;7.57;1.47;;;;;;;11.02;79.79;97895.64;642020;221;26967;-74
2021/01/22 08:11:52;;;;;;;4.75;1.20;;;;;;;11.25;78.01;97888.64;636143;220;33296;-74
2021/01/22 08:14:29;;;;;;;2.63;1.07;;;;;;;11.02;78.13;97883.14;644941;221;23687;-73
2021/01/22 08:16:57;;;;;;;4.47;1.33;;;;;;;11.10;78.06;97883.69;637397;224;24770;-74
2021/01/22 08:19:26;;;;;;;6.93;1.23;;;;;;;11.11;78.19;97885.28;634476;225;24820;-73
2021/01/22 08:21:53;;;;;;;4.80;1.40;;;;;;;11.00;78.34;97880.25;637315;225;24829;-73
2021/01/22 08:24:22;;;;;;;5.53;1.27;;;;;;;11.04;77.96;97884.53;646504;220;24815;-73
2021/01/22 08:26:58;;;;;;;5.03;1.33;;;;;;;11.12;78.23;97889.98;640387;220;24814;-74
2021/01/22 08:29:28;;;;;;;4.30;1.40;;;;;;;11.20;77.10;97889.77;630236;221;32827;-73
2021/01/22 08:31:56;;;;;;;6.70;1.50;;;;;;;11.08;78.75;97893.51;638776;221;24912;-73
2021/01/22 08:34:25;;;;;;;7.97;2.00;;;;;;;11.28;79.12;97896.84;622592;225;32883;-73
2021/01/22 08:36:53;;;;;;;5.80;1.37;;;;;;;11.06;80.15;97902.02;633177;226;24793;-73
2021/01/22 08:39:21;;;;;;;4.53;1.40;;;;;;;11.00;81.39;97902.86;644058;221;24851;-73
2021/01/22 08:41:49;;;;;;;5.17;1.17;;;;;;;11.01;81.86;97907.05;637322;225;24767;-73
2021/01/22 08:44:17;;;;;;;7.47;1.70;;;;;;;11.03;81.75;97920.65;632078;225;23850;-73
2021/01/22 08:46:47;;;;;;;4.80;1.07;;;;;;;10.97;81.52;97914.95;631420;225;24828;-73
2021/01/22 08:49:15;;;;;;;5.33;1.30;;;;;;;10.90;81.45;97924.58;627394;225;25446;-74
2021/01/22 08:51:43;;;;;;;7.03;1.70;;;;;;;10.93;81.37;97930.67;638502;221;23791;-73
2021/01/22 08:54:12;;;;;;;8.73;1.90;;;;;;;10.88;82.66;97935.19;639622;221;24806;-73
2021/01/22 08:56:39;;;;;;;7.20;1.63;;;;;;;10.89;82.34;97930.79;641188;221;24792;-73
2021/01/22 08:59:08;;;;;;;4.70;1.40;;;;;;;10.78;83.99;97936.09;644400;221;24778;-73
2021/01/22 09:01:46;;;;;;;4.87;1.50;;;;;;;10.67;84.07;97941.91;641965;221;25040;-73
2021/01/22 09:04:20;;;;;;;3.40;1.33;;;;;;;10.77;84.65;97924.61;644050;220;24766;-74
2021/01/22 09:06:48;;;;;;;5.30;1.60;;;;;;;10.76;83.68;97933.41;644320;221;24786;-73
2021/01/22 09:09:16;;;;;;;6.73;1.60;;;;;;;10.78;83.84;97923.60;638348;221;24815;-73
2021/01/22 09:11:46;;;;;;;4.97;1.50;;;;;;;11.01;83.60;97917.45;639654;221;27976;-73
2021/01/22 09:14:12;;;;;;;7.93;1.33;;;;;;;10.90;83.49;97923.28;640046;222;30145;-73
2021/01/22 09:16:47;;;;;;;3.90;1.90;;;;;;;10.89;82.30;97913.88;643058;221;24771;-73
2021/01/22 09:19:15;;;;;;;6.47;1.80;;;;;;;11.10;82.80;97918.81;639471;221;24841;-73
2021/01/22 09:21:56;;;;;;;4.40;1.53;;;;;;;11.12;82.21;97915.53;638342;222;24793;-73
2021/01/22 09:24:24;;;;;;;6.13;1.90;;;;;;;11.17;80.59;97911.80;645865;220;24777;-73
2021/01/22 09:26:52;;;;;;;5.10;1.60;;;;;;;11.33;81.03;97918.84;644622;220;24785;-73
2021/01/22 09:29:20;;;;;;;7.97;1.97;;;;;;;11.32;80.12;97916.75;649301;220;24813;-73
2021/01/22 09:31:48;;;;;;;4.50;1.62;;;;;;;11.43;80.38;97917.91;636559;220;32649;-73
2021/01/22 09:34:16;;;;;;;6.93;1.63;;;;;;;11.41;80.71;97925.92;629055;226;23677;-73
2021/01/22 09:36:47;;;;;;;5.73;1.37;;;;;;;11.37;81.11;97928.63;643086;221;24776;-73
2021/01/22 09:39:13;;;;;;;5.73;1.23;;;;;;;11.19;80.89;97932.41;641309;221;24751;-73
2021/01/22 09:41:41;;;;;;;3.70;1.37;;;;;;;11.19;82.63;97956.62;646603;221;24797;-73
2021/01/22 09:44:09;;;;;;;5.20;1.20;;;;;;;11.33;82.64;97959.18;639987;222;24780;-73
2021/01/22 09:46:37;;;;;;;7.30;1.37;;;;;;;11.11;83.12;97958.13;645271;221;24784;-73
2021/01/22 09:49:06;;;;;;;3.30;1.20;;;;;;;10.89;83.97;97965.89;643387;222;24779;-73
2021/01/22 09:51:35;;;;;;;2.30;1.30;;;;;;;10.89;83.92;97963.30;643325;221;24835;-73
2021/01/22 09:54:02;;;;;;;3.27;1.33;;;;;;;10.83;85.18;97978.39;646467;221;24768;-73
2021/01/22 09:56:30;;;;;;;6.73;1.93;;;;;;;10.75;85.87;97983.31;636552;225;23804;-74
2021/01/22 09:58:58;;;;;;;2.50;1.23;;;;;;;10.65;86.43;97998.00;639063;221;24776;-73
2021/01/22 10:01:26;;;;;;;6.87;1.20;;;;;;;10.70;87.09;97999.52;623617;225;32825;-73
2021/01/22 10:03:54;;;;;;;4.40;1.20;;;;;;;10.63;86.89;98001.30;630392;225;23838;-73
2021/01/22 10:06:22;;;;;;;2.80;1.10;;;;;;;10.55;88.28;98009.79;630770;225;24811;-73
2021/01/22 10:08:50;;;;;;;3.00;1.10;;;;;;;10.48;88.75;98015.00;645975;221;24766;-73
2021/01/22 10:11:18;;;;;;;3.20;1.40;;;;;;;10.46;89.00;98024.80;642412;222;24852;-73
2021/01/22 10:13:49;;;;;;;8.30;1.47;;;;;;;10.40;89.56;98028.97;630570;226;24832;-73
2021/01/22 10:16:14;;;;;;;2.90;1.03;;;;;;;10.41;89.78;98025.87;630977;225;24808;-73
2021/01/22 10:18:42;;;;;;;4.83;1.50;;;;;;;10.39;90.69;98027.87;636322;223;24938;-73
2021/01/22 10:21:10;;;;;;;2.73;1.20;;;;;;;10.39;90.76;98024.77;641560;221;27040;-74
2021/01/22 10:23:38;;;;;;;3.10;1.50;;;;;;;10.38;92.49;98021.88;646318;221;25264;-74
2021/01/22 10:26:06;;;;;;;3.70;1.53;;;;;;;10.44;93.74;98024.20;640881;221;24809;-73
2021/01/22 10:28:33;;;;;;;7.37;1.40;;;;;;;10.67;93.51;98021.19;636945;221;32736;-74
2021/01/22 10:31:01;;;;;;;9.93;1.63;;;;;;;10.46;95.47;98033.09;631962;225;23677;-74
2021/01/22 10:33:29;;;;;;;7.13;1.90;;;;;;;10.35;96.02;98035.77;640295;221;24784;-74
2021/01/22 10:35:57;;;;;;;6.77;1.80;;;;;;;10.16;97.28;98039.10;638915;223;24781;-74
2021/01/22 10:38:26;;;;;;;4.40;1.77;;;;;;;10.04;98.64;98053.95;629543;225;24885;-73
2021/01/22 10:40:54;;;;;;;5.37;1.20;;;;;;;8.51;100.00;98062.25;644833;221;25047;-73
2021/01/22 10:43:22;;;;;;;3.67;1.10;;;;;;;7.40;100.00;98085.30;639536;220;32667;-73
2021/01/22 10:45:50;;;;;;;2.83;0.97;;;;;;;6.63;100.00;98087.27;637566;224;23653;-73
2021/01/22 10:48:18;;;;;;;1.52;0.60;;;;;;;6.04;100.00;98103.73;626608;225;32754;-73
2021/01/22 10:50:46;;;;;;;0.90;0.67;;;;;;;5.48;100.00;98105.50;630112;226;23683;-73
2021/01/22 10:53:14;;;;;;;1.70;0.63;;;;;;;5.15;100.00;98110.73;640224;221;24986;-73
2021/01/22 10:55:43;;;;;;;0.70;0.50;;;;;;;4.75;100.00;98109.77;641151;221;24764;-75
2021/01/22 10:58:10;;;;;;;1.07;0.60;;;;;;;4.58;100.00;98113.78;641530;221;24749;-75
2021/01/22 11:00:39;;;;;;;0.70;0.57;;;;;;;4.43;100.00;98100.73;631569;226;24791;-75
2021/01/22 11:03:06;;;;;;;0.63;0.60;;;;;;;4.30;100.00;98115.33;627971;225;24795;-75
2021/01/22 11:05:34;;;;;;;0.80;0.60;;;;;;;4.24;100.00;98101.02;634830;225;24765;-76
2021/01/22 11:08:02;;;;;;;0.50;0.50;;;;;;;4.30;100.00;98115.81;638230;225;24736;-75
2021/01/22 11:10:30;;;;;;;0.67;0.57;;;;;;;4.23;100.00;98122.56;638561;221;25032;-75
2021/01/22 11:12:58;;;;;;;1.00;0.50;;;;;;;4.21;100.00;98133.47;637527;221;32552;-75
2021/01/22 11:15:27;;;;;;;0.70;0.63;;;;;;;4.23;100.00;98129.00;635478;225;26845;-75
2021/01/22 11:17:54;;;;;;;0.73;0.50;;;;;;;4.13;100.00;98131.20;628856;223;24790;-75
2021/01/22 11:20:23;;;;;;;0.50;0.50;;;;;;;4.10;100.00;98162.88;645129;221;24768;-75
2021/01/22 11:22:51;;;;;;;3.33;0.70;;;;;;;4.18;100.00;98161.12;638352;221;24760;-75
2021/01/22 11:25:21;;;;;;;1.33;0.80;;;;;;;4.14;100.00;98144.39;631860;226;24804;-75
2021/01/22 11:27:48;;;;;;;1.43;0.73;;;;;;;4.09;100.00;98141.49;643414;221;24755;-76
2021/01/22 11:30:17;;;;;;;0.77;0.63;;;;;;;4.09;100.00;98159.50;628625;225;24855;-75
2021/01/22 11:32:45;;;;;;;0.60;0.60;;;;;;;4.16;100.00;98159.19;634427;225;24872;-75
2021/01/22 11:35:13;;;;;;;0.80;0.80;;;;;;;4.20;100.00;98188.45;644466;221;26251;-76
2021/01/22 11:37:41;;;;;;;0.78;0.50;;;;;;;4.17;100.00;98180.09;630550;225;32685;-75
2021/01/22 11:40:10;;;;;;;1.57;0.60;;;;;;;4.15;100.00;98168.34;634676;225;23714;-75
2021/01/22 11:42:38;;;;;;;1.03;0.57;;;;;;;4.19;100.00;98181.22;645430;221;24765;-75
2021/01/22 11:45:07;;;;;;;0.60;0.60;;;;;;;4.14;100.00;98177.03;626435;225;24815;-75
2021/01/22 11:47:35;;;;;;;0.70;0.50;;;;;;;4.15;100.00;98153.72;625224;225;43423;-75